Time;durP1;ratioP1;P1;durP2;ratioP2;P2;SDS_P1;SDS_P2;PMS_P1;PMS_P2;Temp;Humidity;BMP_temperature;BMP_pressure;BME280_temperature;BME280_humidity;BME280_pressure;Samples;Min_cycle;Max_cycle;Signal;HPM_P1;HPM_P2
2023/09/14 00:00:46;;;;;;;7.93;5.75;;;15.50;99.90;;;15.33;100.00;97627.44;5012111;28;20394;-39
2023/09/14 00:03:12;;;;;;;7.13;5.35;;;15.60;99.90;;;15.30;100.00;97631.09;5015750;28;20091;-38
2023/09/14 00:05:48;;;;;;;8.43;6.32;;;15.60;99.90;;;15.37;100.00;97640.47;5005931;28;20385;-39
2023/09/14 00:08:14;;;;;;;7.85;5.35;;;15.60;99.90;;;15.38;100.00;97636.00;5004058;28;20095;-38
2023/09/14 00:10:40;;;;;;;5.80;4.25;;;15.60;99.90;;;15.39;100.00;97638.59;5006731;28;20099;-38
2023/09/14 00:13:08;;;;;;;8.63;5.15;;;15.60;99.90;;;15.41;100.00;97642.00;5007442;28;20090;-39
2023/09/14 00:15:34;;;;;;;5.80;4.43;;;15.60;99.90;;;15.43;100.00;97642.81;5005516;28;20040;-40
2023/09/14 00:18:00;;;;;;;6.22;4.72;;;15.70;99.90;;;15.46;100.00;97639.13;5002674;28;20318;-38
2023/09/14 00:20:30;;;;;;;7.90;5.22;;;15.70;99.90;;;15.49;100.00;97638.09;5004993;28;20037;-38
2023/09/14 00:22:57;;;;;;;5.70;4.53;;;15.70;99.90;;;15.52;100.00;97632.63;5001747;28;20033;-38
2023/09/14 00:25:23;;;;;;;4.75;4.30;;;15.70;99.90;;;15.53;100.00;97626.38;5007454;28;20037;-38
2023/09/14 00:27:51;;;;;;;8.38;5.57;;;15.80;99.90;;;15.55;100.00;97627.16;5000960;28;20038;-38
2023/09/14 00:30:19;;;;;;;9.93;5.35;;;15.70;99.90;;;15.54;100.00;97636.94;5006202;28;20106;-39
2023/09/14 00:32:44;;;;;;;9.88;6.30;;;15.80;99.90;;;15.52;100.00;97638.78;5003710;28;20390;-39
2023/09/14 00:35:12;;;;;;;8.05;5.47;;;15.80;99.90;;;15.48;100.00;97639.91;5003701;28;20079;-38
2023/09/14 00:37:39;;;;;;;6.18;5.20;;;15.70;99.90;;;15.46;100.00;97639.97;4999053;28;20036;-39
2023/09/14 00:40:08;;;;;;;8.30;5.15;;;15.70;99.90;;;15.43;100.00;97637.50;5001676;28;23389;-38
2023/09/14 00:42:46;;;;;;;8.77;5.28;;;15.60;99.90;;;15.38;100.00;97642.19;5004048;28;20036;-39
2023/09/14 00:45:19;;;;;;;7.65;5.70;;;15.60;99.90;;;15.33;100.00;97646.88;5013353;28;20489;-38
2023/09/14 00:47:52;;;;;;;7.00;5.07;;;15.50;99.90;;;15.32;100.00;97649.63;5007652;28;20036;-38
2023/09/14 00:50:20;;;;;;;7.40;4.57;;;15.50;99.90;;;15.24;100.00;97640.25;5012762;28;20443;-38
2023/09/14 00:53:00;;;;;;;9.13;6.50;;;15.50;99.90;;;15.21;100.00;97644.88;5007740;28;20103;-39
2023/09/14 00:55:28;;;;;;;9.95;6.40;;;15.40;99.90;;;15.12;100.00;97646.19;5010873;28;20297;-39
2023/09/14 00:57:55;;;;;;;7.97;5.07;;;15.40;99.90;;;15.12;100.00;97645.34;5011168;28;20133;-38
2023/09/14 01:00:21;;;;;;;10.48;6.05;;;15.30;99.90;;;15.10;100.00;97644.56;5011917;28;20037;-38
2023/09/14 01:03:00;;;;;;;10.40;6.20;;;15.30;99.90;;;15.03;100.00;97641.34;5010016;28;20496;-38
2023/09/14 01:05:30;;;;;;;11.88;7.78;;;15.30;99.90;;;15.01;100.00;97651.19;4999701;28;20065;-38
2023/09/14 01:07:57;;;;;;;10.77;8.23;;;15.30;99.90;;;14.98;100.00;97654.00;4996517;28;20040;-38
2023/09/14 01:10:23;;;;;;;11.57;7.00;;;15.20;99.90;;;14.88;100.00;97643.00;5005001;28;20034;-38
2023/09/14 01:12:49;;;;;;;8.88;6.47;;;15.20;99.90;;;14.84;100.00;97633.44;5004376;28;20041;-38
2023/09/14 01:15:26;;;;;;;11.50;6.30;;;15.20;99.90;;;14.91;100.00;97648.13;5004344;28;20033;-38
2023/09/14 01:18:00;;;;;;;10.73;7.40;;;15.10;99.90;;;14.91;100.00;97647.28;5000819;28;20783;-38
2023/09/14 01:20:57;;;;;;;9.82;6.95;;;15.10;99.90;;;14.84;100.00;97649.38;5011537;28;21554;-38
2023/09/14 01:23:29;;;;;;;11.90;7.80;;;15.10;99.90;;;14.80;100.00;97648.69;4986899;28;20052;-38
2023/09/14 01:25:55;;;;;;;10.10;6.90;;;15.00;99.90;;;14.79;100.00;97654.09;5003763;28;20034;-39
2023/09/14 01:28:21;;;;;;;8.80;6.30;;;15.10;99.90;;;14.69;100.00;97638.59;5003562;28;20296;-38
2023/09/14 01:30:47;;;;;;;8.82;6.30;;;15.00;99.90;;;14.72;100.00;97639.41;5002391;28;20039;-38
2023/09/14 01:33:17;;;;;;;11.38;7.05;;;15.00;99.90;;;14.67;100.00;97645.78;5007739;28;20143;-38
2023/09/14 01:35:49;;;;;;;9.00;6.40;;;14.90;99.90;;;14.62;100.00;97652.25;5006668;28;20057;-39
2023/09/14 01:38:15;;;;;;;;;;;14.90;99.90;;;14.59;100.00;97647.09;5004788;28;20049;-38
2023/09/14 01:40:44;;;;;;;10.88;7.20;;;14.90;99.90;;;14.56;100.00;97645.44;5010729;28;20391;-38
2023/09/14 01:43:11;;;;;;;9.23;6.80;;;14.80;99.90;;;14.55;100.00;97661.41;5004611;28;20036;-38
2023/09/14 01:45:38;;;;;;;9.50;6.45;;;14.80;99.90;;;14.52;100.00;97651.81;5012183;28;20045;-38
2023/09/14 01:48:04;;;;;;;8.35;6.32;;;14.80;99.90;;;14.55;100.00;97654.31;5008127;28;20065;-39
2023/09/14 01:50:30;;;;;;;8.80;6.90;;;14.80;99.90;;;14.57;100.00;97652.47;5004448;28;20497;-38
2023/09/14 01:52:57;;;;;;;9.13;6.70;;;14.80;99.90;;;14.55;100.00;97651.66;4997878;28;20030;-39
2023/09/14 01:55:22;;;;;;;8.55;6.53;;;14.80;99.90;;;14.52;100.00;97651.81;5005857;28;20076;-38
2023/09/14 01:57:48;;;;;;;7.65;6.00;;;14.80;99.90;;;14.55;100.00;97656.97;5003467;28;20184;-38
2023/09/14 02:00:15;;;;;;;9.32;6.32;;;14.80;99.90;;;14.53;100.00;97656.19;5006896;28;20037;-38
2023/09/14 02:02:41;;;;;;;10.25;6.85;;;14.80;99.90;;;14.45;100.00;97650.41;5009820;28;20037;-38
2023/09/14 02:05:07;;;;;;;11.10;6.75;;;14.80;99.90;;;14.47;100.00;97649.38;5006852;28;20363;-38
2023/09/14 02:07:33;;;;;;;8.75;6.85;;;14.80;99.90;;;14.53;100.00;97658.84;5008327;28;20076;-39
2023/09/14 02:09:58;;;;;;;9.45;6.43;;;14.80;99.90;;;14.55;100.00;97662.28;5004132;28;20141;-38
2023/09/14 02:12:24;;;;;;;8.98;6.35;;;14.80;99.90;;;14.55;100.00;97656.97;5010017;28;20030;-38
2023/09/14 02:14:51;;;;;;;8.57;6.20;;;14.80;99.90;;;14.55;100.00;97656.97;5004595;28;20116;-39
2023/09/14 02:17:17;;;;;;;12.27;6.50;;;14.90;99.90;;;14.60;100.00;97668.25;5006605;28;20112;-38
2023/09/14 02:19:43;;;;;;;9.50;6.10;;;14.90;99.90;;;14.58;100.00;97650.69;5005677;28;20103;-38
2023/09/14 02:22:09;;;;;;;9.23;5.88;;;14.90;99.90;;;14.65;100.00;97654.78;5008847;28;20357;-38
2023/09/14 02:24:35;;;;;;;7.63;5.90;;;14.90;99.90;;;14.63;100.00;97660.16;5014901;28;20037;-38
2023/09/14 02:27:00;;;;;;;6.70;5.18;;;14.90;99.90;;;14.61;100.00;97659.38;5011052;28;20025;-38
2023/09/14 02:29:26;;;;;;;7.47;5.65;;;14.90;99.90;;;14.55;100.00;97651.66;5005637;28;20115;-38
2023/09/14 02:31:52;;;;;;;6.32;5.07;;;14.80;99.90;;;14.49;100.00;97659.94;5002359;28;20037;-38
2023/09/14 02:34:17;;;;;;;5.90;4.78;;;14.80;99.90;;;14.44;100.00;97662.78;5006789;28;20052;-38
2023/09/14 02:36:43;;;;;;;6.43;5.40;;;14.70;99.90;;;14.27;100.00;97642.38;5008178;28;20053;-38
2023/09/14 02:39:09;;;;;;;6.50;5.00;;;14.70;99.90;;;14.38;100.00;97664.91;5002927;28;20058;-38
2023/09/14 02:41:34;;;;;;;5.95;5.28;;;14.70;99.90;;;14.37;100.00;97663.16;5006873;28;20432;-38
2023/09/14 02:44:00;;;;;;;8.55;5.25;;;14.60;99.90;;;14.43;100.00;97662.91;5005274;28;20025;-38
2023/09/14 02:46:26;;;;;;;5.97;4.82;;;14.70;99.90;;;14.46;100.00;97662.72;5007366;28;20359;-37
2023/09/14 02:48:51;;;;;;;6.78;4.88;;;14.70;99.90;;;14.49;100.00;97667.88;5005014;28;20026;-39
2023/09/14 02:51:17;;;;;;;7.13;5.22;;;14.80;99.90;;;14.57;100.00;97665.75;5007110;28;20037;-38
2023/09/14 02:53:43;;;;;;;7.57;4.50;;;14.80;99.90;;;14.65;100.00;97670.69;5014801;28;20103;-38
2023/09/14 02:56:10;;;;;;;4.63;3.95;;;14.90;99.90;;;14.75;100.00;97664.00;4991067;28;20144;-40
2023/09/14 02:58:36;;;;;;;6.75;4.75;;;15.00;99.90;;;14.81;100.00;97666.34;5000622;28;20030;-38
2023/09/14 03:01:09;;;;;;;5.70;4.43;;;15.00;99.90;;;14.83;100.00;97655.66;5002917;28;20406;-38
2023/09/14 03:03:36;;;;;;;6.15;4.25;;;15.10;99.90;;;14.86;100.00;97666.97;5005064;28;20041;-38
2023/09/14 03:06:02;;;;;;;4.85;4.38;;;15.10;99.90;;;14.86;100.00;97671.44;5004137;28;20037;-38
2023/09/14 03:08:28;;;;;;;5.28;3.80;;;15.10;99.90;;;14.89;100.00;97668.59;5007416;28;20045;-38
2023/09/14 03:10:53;;;;;;;5.72;4.20;;;15.10;99.90;;;14.88;100.00;97674.88;5004402;28;20041;-38
2023/09/14 03:13:19;;;;;;;5.15;4.38;;;15.10;99.90;;;14.88;100.00;97673.06;5001491;28;21246;-39
2023/09/14 03:15:45;;;;;;;7.45;5.32;;;15.10;99.90;;;14.89;100.00;97679.22;5007729;28;20029;-39
2023/09/14 03:18:10;;;;;;;6.07;4.28;;;15.10;99.90;;;14.86;100.00;97682.91;5006922;28;20079;-38
2023/09/14 03:20:38;;;;;;;4.55;4.05;;;15.10;99.90;;;14.86;100.00;97682.06;5005435;28;20052;-38
2023/09/14 03:23:04;;;;;;;6.13;4.50;;;15.10;99.90;;;14.83;100.00;97691.00;5005551;28;20048;-38
2023/09/14 03:25:30;;;;;;;5.72;4.47;;;15.10;99.90;;;14.82;100.00;97686.66;5005127;28;20509;-38
2023/09/14 03:27:56;;;;;;;6.82;4.38;;;15.10;99.90;;;14.80;100.00;97688.50;5006230;28;20115;-38
2023/09/14 03:30:22;;;;;;;5.63;3.95;;;15.10;99.90;;;14.78;100.00;97689.53;5010425;28;20115;-40
2023/09/14 03:32:48;;;;;;;4.95;4.30;;;15.00;99.90;;;14.72;100.00;97692.50;5001133;28;20021;-38
2023/09/14 03:35:15;;;;;;;5.18;3.92;;;15.00;99.90;;;14.66;100.00;97691.84;5003230;28;20375;-39
2023/09/14 03:37:40;;;;;;;5.60;4.55;;;14.90;99.90;;;14.62;100.00;97694.72;5005684;28;20060;-38
2023/09/14 03:40:08;;;;;;;9.07;4.75;;;14.90;99.90;;;14.58;100.00;97695.81;5001752;28;20683;-38
2023/09/14 03:42:34;;;;;;;4.97;4.38;;;14.80;99.90;;;14.49;100.00;97684.66;5004336;28;20655;-38
2023/09/14 03:45:00;;;;;;;6.15;4.22;;;14.80;99.90;;;14.42;100.00;97672.63;5002851;28;20171;-39
2023/09/14 03:47:26;;;;;;;6.38;5.00;;;14.80;99.90;;;14.47;100.00;97688.34;5005600;28;20034;-38
2023/09/14 03:49:51;;;;;;;6.35;5.10;;;14.80;99.90;;;14.48;100.00;97696.22;5001094;28;20061;-38
2023/09/14 03:52:17;;;;;;;5.40;4.53;;;14.80;99.90;;;14.45;100.00;97688.41;5002219;28;20038;-38
2023/09/14 03:54:43;;;;;;;6.43;5.60;;;14.80;99.90;;;14.46;100.00;97689.25;5003939;28;20046;-38
2023/09/14 03:57:14;;;;;;;9.50;5.95;;;14.70;99.90;;;14.37;100.00;97677.28;5002533;28;20108;-38
2023/09/14 03:59:45;;;;;;;8.03;6.10;;;14.70;99.90;;;14.44;100.00;97686.66;4994552;28;20040;-38
2023/09/14 04:02:11;;;;;;;7.80;6.20;;;14.70;99.90;;;14.41;100.00;97681.53;5000449;28;20032;-39
2023/09/14 04:04:41;;;;;;;8.57;6.70;;;14.70;99.90;;;14.40;100.00;97685.09;5000302;28;20708;-39
2023/09/14 04:07:07;;;;;;;8.23;5.63;;;14.70;99.90;;;14.40;100.00;97692.22;5002706;28;20044;-39
2023/09/14 04:09:33;;;;;;;6.32;4.85;;;14.70;99.90;;;14.40;100.00;97686.91;5004169;28;20038;-38
2023/09/14 04:11:58;;;;;;;10.05;7.03;;;14.60;99.90;;;14.35;100.00;97697.72;4999218;28;20116;-39
2023/09/14 04:14:24;;;;;;;7.80;6.40;;;14.60;99.90;;;14.32;100.00;97692.59;5000439;28;20132;-38
2023/09/14 04:16:57;;;;;;;8.38;5.20;;;14.60;99.90;;;14.32;100.00;97700.56;5000443;28;20390;-39
2023/09/14 04:19:29;;;;;;;;;;;14.60;99.90;;;14.24;100.00;97692.06;5003205;28;20053;-38
2023/09/14 04:21:55;;;;;;;7.22;5.75;;;14.60;99.90;;;14.27;100.00;97702.56;5002410;28;20373;-38
2023/09/14 04:24:21;;;;;;;7.90;6.22;;;14.50;99.90;;;14.23;100.00;97703.59;5000242;28;20128;-39
2023/09/14 04:26:48;;;;;;;7.95;6.15;;;14.50;99.90;;;14.21;100.00;97708.13;5003150;28;20060;-40
2023/09/14 04:29:14;;;;;;;10.35;6.72;;;14.40;99.90;;;14.19;100.00;97708.19;5004265;28;20505;-38
2023/09/14 04:31:43;;;;;;;8.48;6.60;;;14.40;99.90;;;14.19;100.00;97704.69;5005234;28;20033;-38
2023/09/14 04:34:09;;;;;;;10.48;7.25;;;14.40;99.90;;;14.19;100.00;97705.53;5004471;28;20091;-40
2023/09/14 04:36:37;;;;;;;9.73;7.40;;;14.40;99.90;;;14.20;100.00;97709.94;5006116;28;20044;-38
2023/09/14 04:39:03;;;;;;;9.98;7.22;;;14.40;99.90;;;14.20;100.00;97709.09;4999896;28;20033;-39
2023/09/14 04:41:30;;;;;;;9.15;7.22;;;14.40;99.90;;;14.21;100.00;97716.97;5007078;28;20482;-38
2023/09/14 04:43:56;;;;;;;9.57;7.28;;;14.40;99.90;;;14.17;100.00;97711.88;5005424;28;20049;-38
2023/09/14 04:46:22;;;;;;;9.20;7.38;;;14.40;99.90;;;14.17;100.00;97715.38;4999187;28;20111;-39
2023/09/14 04:48:49;;;;;;;9.23;7.25;;;14.40;99.90;;;14.12;100.00;97718.25;4999042;28;20043;-40
2023/09/14 04:51:15;;;;;;;11.02;7.15;;;14.40;99.90;;;14.10;100.00;97713.94;4996413;28;20362;-38
2023/09/14 04:53:41;;;;;;;9.68;6.72;;;14.30;99.90;;;13.99;100.00;97705.63;5009566;28;20149;-39
2023/09/14 04:56:07;;;;;;;8.88;6.57;;;14.30;99.90;;;13.94;100.00;97704.06;4995991;28;20401;-40
2023/09/14 04:58:33;;;;;;;7.05;6.13;;;14.30;99.90;;;14.09;100.00;97709.59;5003749;28;20732;-38
2023/09/14 05:00:59;;;;;;;9.30;6.13;;;14.30;99.90;;;14.13;100.00;97714.66;5002020;28;20025;-38
2023/09/14 05:03:24;;;;;;;7.68;6.28;;;14.40;99.90;;;14.11;100.00;97708.56;5003635;28;20437;-39
2023/09/14 05:05:53;;;;;;;7.38;6.22;;;14.40;99.90;;;14.22;100.00;97716.03;5001018;28;20398;-40
2023/09/14 05:08:20;;;;;;;10.48;6.78;;;14.50;99.90;;;14.27;100.00;97716.66;4999515;28;20028;-39
2023/09/14 05:10:52;;;;;;;8.75;6.07;;;14.50;99.90;;;14.36;100.00;97726.00;5004764;28;20033;-40
2023/09/14 05:13:18;;;;;;;9.88;7.10;;;14.60;99.90;;;14.43;100.00;97718.63;5003730;28;20041;-39
2023/09/14 05:15:45;;;;;;;8.85;5.63;;;14.70;99.90;;;14.50;100.00;97725.34;5006273;28;20133;-40
2023/09/14 05:18:11;;;;;;;7.30;6.10;;;14.80;99.90;;;14.61;100.00;97730.19;4998391;28;20557;-39
2023/09/14 05:20:36;;;;;;;7.57;5.90;;;14.80;99.90;;;14.69;100.00;97728.84;4996249;28;20034;-39
2023/09/14 05:23:03;;;;;;;7.20;5.60;;;15.00;99.90;;;14.75;100.00;97721.53;4991460;28;20025;-39
2023/09/14 05:25:29;;;;;;;8.27;6.38;;;15.00;99.90;;;14.84;100.00;97729.03;4997919;28;20601;-39
2023/09/14 05:28:01;;;;;;;8.02;5.72;;;15.10;99.90;;;14.91;100.00;97733.13;5009280;28;20112;-38
2023/09/14 05:30:26;;;;;;;7.28;5.22;;;15.10;99.90;;;14.98;100.00;97728.38;4998868;28;20294;-40
2023/09/14 05:32:52;;;;;;;5.72;4.90;;;15.20;99.90;;;14.92;100.00;97715.41;5004770;28;20093;-41
2023/09/14 05:35:18;;;;;;;6.43;4.53;;;15.20;99.90;;;15.06;100.00;97742.16;5002203;28;20037;-39
2023/09/14 05:37:44;;;;;;;4.75;4.20;;;15.30;99.90;;;15.10;100.00;97737.53;5005639;28;20060;-38
2023/09/14 05:40:12;;;;;;;6.30;4.53;;;15.30;99.90;;;15.14;100.00;97739.09;4998938;28;20040;-39
2023/09/14 05:42:38;;;;;;;6.60;5.28;;;15.40;99.90;;;15.07;100.00;97717.28;5008157;28;20568;-42
2023/09/14 05:45:14;;;;;;;4.93;4.18;;;15.40;99.90;;;15.24;100.00;97735.91;5005326;28;20124;-39
2023/09/14 05:47:40;;;;;;;7.10;4.80;;;15.50;99.90;;;15.34;100.00;97735.44;5004494;28;20037;-39
2023/09/14 05:50:10;;;;;;;6.10;4.65;;;15.60;99.90;;;15.42;100.00;97735.91;5002774;28;20429;-38
2023/09/14 05:52:35;;;;;;;6.97;4.70;;;15.60;99.90;;;15.50;100.00;97740.81;5004095;28;20116;-39
2023/09/14 05:55:05;;;;;;;5.65;4.63;;;15.70;99.90;;;15.58;100.00;97733.31;5005607;28;20074;-39
2023/09/14 05:57:31;;;;;;;7.30;5.53;;;15.80;99.90;;;15.66;100.00;97741.75;5007120;28;20030;-38
2023/09/14 05:59:58;;;;;;;7.90;5.80;;;15.90;99.90;;;15.72;100.00;97738.78;5001143;28;20349;-39
2023/09/14 06:02:24;;;;;;;7.10;5.75;;;15.90;99.90;;;15.82;100.00;97739.19;5002951;28;20034;-39
2023/09/14 06:04:50;;;;;;;8.48;4.78;;;16.00;99.90;;;15.92;100.00;97742.22;4998503;28;20071;-41
2023/09/14 06:07:16;;;;;;;6.32;5.00;;;16.10;99.90;;;15.97;100.00;97740.16;5002984;28;20116;-38
2023/09/14 06:09:42;;;;;;;7.97;5.82;;;16.20;99.90;;;16.04;100.00;97746.88;5005305;28;20051;-39
2023/09/14 06:12:07;;;;;;;7.57;6.18;;;16.20;99.90;;;16.08;100.00;97745.78;5001429;28;20064;-38
2023/09/14 06:14:33;;;;;;;6.30;4.90;;;16.30;99.90;;;16.14;100.00;97752.56;5006449;28;20038;-39
2023/09/14 06:16:59;;;;;;;10.73;7.30;;;16.30;99.90;;;16.15;100.00;97747.19;4999493;28;20543;-39
2023/09/14 06:19:25;;;;;;;9.38;6.50;;;16.40;99.90;;;16.18;100.00;97754.13;5002845;28;20393;-38
2023/09/14 06:21:50;;;;;;;9.40;6.07;;;16.40;99.90;;;16.20;100.00;97757.56;5007286;28;20033;-39
2023/09/14 06:24:17;;;;;;;8.73;6.18;;;16.40;99.90;;;16.19;100.00;97750.53;5009063;28;20037;-38
2023/09/14 06:26:44;;;;;;;9.63;6.18;;;16.40;99.90;;;16.21;100.00;97759.28;5011006;28;20448;-39
2023/09/14 06:29:12;;;;;;;7.38;5.45;;;16.40;99.90;;;16.26;100.00;97769.66;5001432;28;20197;-40
2023/09/14 06:31:39;;;;;;;7.57;5.53;;;16.50;99.90;;;16.27;100.00;97753.63;5002319;28;20141;-39
2023/09/14 06:34:05;;;;;;;10.05;5.90;;;16.50;99.90;;;16.32;100.00;97761.38;5002930;28;20042;-41
2023/09/14 06:36:30;;;;;;;8.68;6.18;;;16.50;99.90;;;16.32;100.00;97762.22;5003444;28;20701;-39
2023/09/14 06:38:56;;;;;;;7.50;5.63;;;16.60;99.90;;;16.33;100.00;97755.97;5004251;28;20037;-39
2023/09/14 06:41:22;;;;;;;9.05;6.95;;;16.60;99.90;;;16.41;100.00;97761.69;5003955;28;20069;-39
2023/09/14 06:43:48;;;;;;;7.97;5.80;;;16.60;99.90;;;16.46;100.00;97761.47;5004881;28;20646;-39
2023/09/14 06:46:13;;;;;;;9.88;5.90;;;16.70;99.90;;;16.42;100.00;97750.13;5000668;28;20021;-39
2023/09/14 06:48:40;;;;;;;8.57;5.63;;;16.70;99.90;;;16.56;100.00;97762.69;5013431;28;20044;-38
2023/09/14 06:51:05;;;;;;;7.20;5.32;;;16.80;99.90;;;16.61;100.00;97765.94;5010829;28;20056;-39
2023/09/14 06:53:35;;;;;;;7.82;5.35;;;16.90;99.90;;;16.71;100.00;97768.09;5013665;28;21778;-39
2023/09/14 06:56:08;;;;;;;8.77;5.20;;;16.90;99.90;;;16.82;100.00;97764.84;5008184;28;20152;-38
2023/09/14 06:58:34;;;;;;;7.30;5.30;;;17.00;99.90;;;16.93;100.00;97768.63;5008956;28;20033;-38
2023/09/14 07:01:05;;;;;;;8.38;5.43;;;17.10;99.90;;;17.02;100.00;97766.41;5004108;28;20110;-39
2023/09/14 07:03:32;;;;;;;8.38;5.18;;;17.20;99.90;;;17.07;100.00;97765.19;5010810;28;20045;-38
2023/09/14 07:05:58;;;;;;;6.65;5.47;;;17.20;99.90;;;17.05;100.00;97759.09;5013780;28;20096;-40
2023/09/14 07:08:24;;;;;;;8.02;4.45;;;17.30;99.90;;;17.12;100.00;97763.13;5006434;28;20091;-39
2023/09/14 07:10:50;;;;;;;6.47;4.10;;;17.30;99.90;;;17.16;100.00;97763.78;5016313;28;20414;-39
2023/09/14 07:13:17;;;;;;;6.38;4.93;;;17.40;99.90;;;17.18;100.00;97776.06;5014334;28;20099;-40
2023/09/14 07:15:43;;;;;;;9.55;6.53;;;17.40;99.90;;;17.18;100.00;97778.75;5011709;28;20076;-39
2023/09/14 07:18:11;;;;;;;7.18;5.70;;;17.40;99.90;;;17.26;100.00;97772.09;4994617;28;20209;-39
2023/09/14 07:20:37;;;;;;;8.10;5.50;;;17.50;99.90;;;17.30;100.00;97774.50;4999745;28;20792;-39
2023/09/14 07:23:02;;;;;;;8.50;5.35;;;17.50;99.90;;;17.32;100.00;97777.94;5007921;28;20120;-39
2023/09/14 07:25:28;;;;;;;7.13;5.43;;;17.50;99.90;;;17.39;100.00;97778.47;5007619;28;20375;-38
2023/09/14 07:27:54;;;;;;;10.80;5.38;;;17.50;99.90;;;17.38;100.00;97775.88;5004247;28;20626;-39
2023/09/14 07:30:20;;;;;;;7.05;5.10;;;17.60;99.90;;;17.40;100.00;97772.16;5010959;28;20029;-39
2023/09/14 07:32:45;;;;;;;9.50;5.07;;;17.60;99.90;;;17.48;100.00;97774.34;5015398;28;20145;-39
2023/09/14 07:35:13;;;;;;;5.82;4.40;;;17.70;99.90;;;17.54;100.00;97776.69;5009614;28;20448;-38
2023/09/14 07:37:39;;;;;;;6.07;4.65;;;17.80;99.90;;;17.62;100.00;97782.44;5005653;28;20034;-38
2023/09/14 07:40:06;;;;;;;4.72;3.97;;;17.80;99.90;;;17.77;100.00;97785.97;5005192;28;20557;-38
2023/09/14 07:42:32;;;;;;;6.45;4.53;;;17.90;99.90;;;17.85;100.00;97786.41;4988974;28;20057;-39
2023/09/14 07:44:57;;;;;;;7.53;4.45;;;18.00;99.90;;;17.85;100.00;97777.50;5012413;28;20029;-38
2023/09/14 07:47:28;;;;;;;4.90;4.03;;;18.10;99.90;;;18.02;100.00;97793.41;5011527;28;20033;-39
2023/09/14 07:49:53;;;;;;;5.40;3.50;;;18.20;99.90;;;18.13;100.00;97788.25;5010555;28;20116;-40
2023/09/14 07:52:19;;;;;;;5.13;4.28;;;18.30;99.90;;;18.22;100.00;97799.34;5010020;28;20043;-41
2023/09/14 07:54:45;;;;;;;6.05;4.32;;;18.40;99.90;;;18.30;100.00;97794.34;5011307;28;20026;-38
2023/09/14 07:57:10;;;;;;;8.82;4.63;;;18.50;99.90;;;18.37;100.00;97790.34;5000236;28;20030;-40
2023/09/14 07:59:36;;;;;;;5.80;4.47;;;18.60;99.90;;;18.47;100.00;97801.34;5003207;28;20072;-40
2023/09/14 08:02:02;;;;;;;6.95;4.78;;;18.70;99.90;;;18.53;100.00;97800.94;5009260;28;20022;-39
2023/09/14 08:04:27;;;;;;;7.63;4.20;;;18.80;99.90;;;18.57;100.00;97810.47;5015408;28;20065;-40
2023/09/14 08:06:53;;;;;;;6.75;4.00;;;18.80;99.90;;;18.57;100.00;97809.59;5007822;28;20099;-38
2023/09/14 08:09:19;;;;;;;7.43;3.95;;;18.80;99.90;;;18.63;100.00;97811.91;5007297;28;20241;-41
2023/09/14 08:11:44;;;;;;;6.53;4.10;;;18.80;99.90;;;18.57;100.00;97789.09;5012166;28;20835;-39
2023/09/14 08:14:10;;;;;;;8.52;4.00;;;18.80;99.90;;;18.62;100.00;97812.84;5017347;28;20044;-40
2023/09/14 08:16:36;;;;;;;9.07;5.47;;;18.80;99.90;;;18.48;100.00;97805.69;5008586;28;20041;-40
2023/09/14 08:19:01;;;;;;;6.38;5.00;;;18.80;99.90;;;18.53;100.00;97810.78;5007601;28;20021;-39
2023/09/14 08:21:27;;;;;;;9.20;5.88;;;18.70;99.90;;;18.52;100.00;97812.59;5009122;28;20087;-38
2023/09/14 08:23:53;;;;;;;6.55;5.10;;;18.70;99.90;;;18.54;100.00;97812.47;5011075;28;20041;-40
2023/09/14 08:26:20;;;;;;;4.38;3.70;;;18.70;99.90;;;18.56;100.00;97810.59;5011764;28;20029;-39
2023/09/14 08:28:45;;;;;;;3.75;3.20;;;18.80;99.90;;;18.62;100.00;97815.53;5013070;28;20037;-38
2023/09/14 08:31:11;;;;;;;3.88;3.20;;;18.80;99.90;;;18.68;100.00;97823.13;5004709;28;20044;-39
2023/09/14 08:33:37;;;;;;;5.60;4.03;;;18.80;99.90;;;18.73;100.00;97817.53;4994167;28;20687;-39
2023/09/14 08:36:03;;;;;;;6.88;3.90;;;18.90;99.90;;;18.81;100.00;97823.25;5007897;28;20953;-39
2023/09/14 08:38:28;;;;;;;5.57;3.38;;;19.00;99.90;;;18.83;100.00;97822.22;5014995;28;20393;-38
2023/09/14 08:41:00;;;;;;;6.43;4.78;;;19.00;99.90;;;18.73;100.00;97828.19;5013518;28;20041;-39
2023/09/14 08:43:27;;;;;;;6.80;5.20;;;19.00;99.90;;;18.70;100.00;97818.59;5011799;28;20385;-39
2023/09/14 08:45:53;;;;;;;8.40;5.25;;;18.90;99.90;;;18.80;100.00;97825.03;5013348;28;20116;-41
2023/09/14 08:48:23;;;;;;;8.88;4.40;;;19.00;99.90;;;18.90;100.00;97828.03;5012302;28;20025;-40
2023/09/14 08:50:49;;;;;;;6.82;5.05;;;19.10;99.90;;;18.82;100.00;97825.81;5007964;28;20477;-38
2023/09/14 08:53:16;;;;;;;7.95;5.72;;;19.10;99.90;;;18.83;100.00;97830.22;5008089;28;20037;-38
2023/09/14 08:55:43;;;;;;;9.00;6.10;;;19.20;99.90;;;18.94;100.00;97832.22;5007030;28;20095;-38
2023/09/14 08:58:12;;;;;;;7.65;5.22;;;19.20;99.90;;;19.04;100.00;97827.13;5008823;28;20477;-39
2023/09/14 09:00:41;;;;;;;6.20;4.53;;;19.30;99.90;;;19.21;100.00;97824.22;4999879;28;20033;-40
2023/09/14 09:03:07;;;;;;;6.53;4.80;;;19.40;99.90;;;19.29;100.00;97825.53;5007193;28;20034;-40
2023/09/14 09:05:33;;;;;;;6.18;4.75;;;19.50;99.90;;;19.38;100.00;97820.47;5007505;28;20045;-40
2023/09/14 09:07:59;;;;;;;5.30;4.50;;;19.60;99.90;;;19.43;100.00;97820.13;5012143;28;20124;-39
2023/09/14 09:10:28;;;;;;;7.25;4.57;;;19.60;99.90;;;19.46;100.00;97826.13;5010730;28;20428;-39
2023/09/14 09:13:02;;;;;;;7.43;4.13;;;19.70;99.90;;;19.50;100.00;97824.13;5009730;28;20127;-39
2023/09/14 09:15:31;;;;;;;5.68;3.80;;;19.70;99.90;;;19.57;100.00;97822.75;5006242;28;20040;-40
2023/09/14 09:18:11;;;;;;;7.60;5.07;;;19.70;99.90;;;19.55;100.00;97822.00;5011973;28;20052;-39
2023/09/14 09:20:40;;;;;;;6.25;4.10;;;19.80;99.90;;;19.57;100.00;97832.59;5011622;28;20369;-39
2023/09/14 09:23:07;;;;;;;7.40;5.15;;;19.70;99.90;;;19.23;100.00;97824.97;5012279;28;20033;-40
2023/09/14 09:25:52;;;;;;;8.05;5.00;;;19.60;99.90;;;19.23;100.00;97821.44;5010979;28;20033;-40
2023/09/14 09:28:18;;;;;;;4.47;3.20;;;19.60;99.90;;;19.31;100.00;97812.91;5008674;28;20492;-39
2023/09/14 09:30:44;;;;;;;11.82;4.40;;;19.60;99.90;;;19.44;100.00;97814.69;5010043;28;20033;-39
2023/09/14 09:33:10;;;;;;;6.20;3.80;;;19.70;99.90;;;19.69;100.00;97817.56;5010417;28;20120;-38
2023/09/14 09:35:36;;;;;;;3.78;3.25;;;19.90;99.90;;;19.93;100.00;97815.91;5014613;28;20037;-39
2023/09/14 09:38:16;;;;;;;9.30;4.80;;;20.10;99.90;;;20.08;100.00;97818.47;5010981;28;20037;-39
2023/09/14 09:40:44;;;;;;;7.55;4.70;;;20.30;99.90;;;20.20;100.00;97815.81;5013793;28;20113;-39
2023/09/14 09:43:15;;;;;;;5.18;3.53;;;20.40;99.90;;;20.27;100.00;97828.78;5011293;28;20120;-40
2023/09/14 09:45:41;;;;;;;6.53;3.45;;;20.40;99.90;;;20.29;100.00;97805.44;5009832;28;20525;-39
2023/09/14 09:48:09;;;;;;;4.60;3.90;;;20.50;99.90;;;20.41;100.00;97817.97;5011976;28;20473;-39
2023/09/14 09:50:35;;;;;;;5.93;3.80;;;20.60;99.90;;;20.53;100.00;97822.47;5012375;28;20092;-38
2023/09/14 09:53:02;;;;;;;5.43;4.18;;;20.70;99.90;;;20.43;100.00;97820.53;5009152;28;20311;-39
2023/09/14 09:55:29;;;;;;;4.72;3.40;;;20.70;99.90;;;20.48;100.00;97811.22;5011080;28;20033;-38
2023/09/14 09:57:59;;;;;;;3.88;3.17;;;20.80;99.90;;;20.66;100.00;97817.13;5011917;28;20171;-38
2023/09/14 10:00:35;;;;;;;6.78;4.20;;;21.00;99.90;;;20.79;100.00;97814.41;5009719;28;20053;-39
2023/09/14 10:03:01;;;;;;;5.43;3.55;;;21.10;99.90;;;20.93;100.00;97825.00;5013889;28;20030;-38
2023/09/14 10:05:29;;;;;;;6.40;4.57;;;21.20;99.90;;;20.82;99.74;97818.69;5009377;28;20045;-39
2023/09/14 10:08:01;;;;;;;5.90;4.53;;;21.20;99.90;;;20.69;100.00;97814.22;5007560;28;20084;-40
2023/09/14 10:10:30;;;;;;;5.43;3.40;;;21.20;99.90;;;20.92;100.00;97819.72;5007550;28;20088;-38
2023/09/14 10:12:58;;;;;;;5.05;3.58;;;21.20;99.90;;;20.98;100.00;97820.16;5009221;28;20033;-38